createdAt,value
2023-03-29T00:01:37.075Z,100963.44
2023-03-29T00:04:08.420Z,100951.38
2023-03-29T00:06:39.306Z,100952.19
2023-03-29T00:09:11.694Z,100950.22
2023-03-29T00:11:41.540Z,100957.00
2023-03-29T00:14:12.179Z,100957.81
2023-03-29T00:16:45.012Z,100950.22
2023-03-29T00:19:14.959Z,100952.19
2023-03-29T00:21:45.372Z,100949.38
2023-03-29T00:24:17.471Z,100948.56
2023-03-29T00:26:47.992Z,100940.47
2023-03-29T00:29:18.301Z,100945.28
2023-03-29T00:31:54.216Z,100936.06
2023-03-29T00:34:25.518Z,100944.50
2023-03-29T00:36:58.474Z,100942.84
2023-03-29T00:39:32.468Z,100942.84
2023-03-29T00:42:02.372Z,100944.84
2023-03-29T00:45:03.096Z,100950.84
2023-03-29T00:47:39.812Z,100949.19
2023-03-29T00:50:16.806Z,100958.44
2023-03-29T00:52:53.582Z,100952.38
2023-03-29T00:55:29.608Z,100951.56
2023-03-29T00:58:01.461Z,100941.47
2023-03-29T01:00:41.459Z,100949.91
2023-03-29T01:03:25.483Z,100939.03
2023-03-29T01:06:02.970Z,100939.41
2023-03-29T01:08:39.656Z,100935.75
2023-03-29T01:11:19.786Z,100939.75
2023-03-29T01:13:58.509Z,100938.13
2023-03-29T01:16:31.640Z,100941.31
2023-03-29T01:19:02.945Z,100946.94
2023-03-29T01:21:43.179Z,100934.88
2023-03-29T01:24:42.589Z,100934.41
2023-03-29T01:27:23.941Z,100933.56
2023-03-29T01:30:00.587Z,100933.94
2023-03-29T01:32:39.158Z,100942.38
2023-03-29T01:35:18.321Z,100935.94
2023-03-29T01:37:57.034Z,100943.56
2023-03-29T01:40:31.464Z,100952.38
2023-03-29T01:43:14.273Z,100950.75
2023-03-29T01:45:53.220Z,100952.72
2023-03-29T01:48:32.542Z,100952.72
2023-03-29T01:51:11.414Z,100958.34
2023-03-29T01:53:49.404Z,100952.72
2023-03-29T01:56:25.296Z,100954.72
2023-03-29T01:59:04.411Z,100959.53
2023-03-29T02:01:44.158Z,100955.91
2023-03-29T02:04:18.935Z,100959.91
2023-03-29T02:06:54.575Z,100959.09
2023-03-29T02:09:26.412Z,100954.66
2023-03-29T02:12:01.330Z,100961.06
2023-03-29T02:14:31.529Z,100949.00
2023-03-29T02:17:22.224Z,100961.44
2023-03-29T02:19:58.611Z,100966.22
2023-03-29T02:22:38.692Z,100971.06
2023-03-29T02:25:11.342Z,100970.56
2023-03-29T02:27:42.408Z,100983.47
2023-03-29T02:30:16.171Z,100983.81
2023-03-29T02:32:56.374Z,100991.41
2023-03-29T02:35:36.801Z,100987.81
2023-03-29T02:38:12.829Z,100996.59
2023-03-29T02:40:44.880Z,100990.97
2023-03-29T02:43:19.074Z,100989.34
2023-03-29T02:45:50.804Z,100996.59
2023-03-29T02:48:29.868Z,100991.78
2023-03-29T02:51:06.791Z,100994.25
2023-03-29T02:53:45.927Z,101005.47
2023-03-29T02:56:17.325Z,101006.31
2023-03-29T02:58:48.897Z,101007.13
2023-03-29T03:01:21.059Z,101005.97
2023-03-29T03:03:53.559Z,101005.97
2023-03-29T03:06:24.628Z,101006.81
2023-03-29T03:08:54.825Z,101008.44
2023-03-29T03:11:25.560Z,101014.06
2023-03-29T03:13:55.963Z,101001.63
2023-03-29T03:16:26.812Z,101001.63
2023-03-29T03:18:58.519Z,100996.84
2023-03-29T03:21:29.181Z,100996.84
2023-03-29T03:24:00.329Z,101004.91
2023-03-29T03:26:30.736Z,101007.34
2023-03-29T03:29:01.642Z,101008.19
2023-03-29T03:31:33.888Z,101013.81
2023-03-29T03:34:05.274Z,101011.00
2023-03-29T03:36:35.926Z,101015.91
2023-03-29T03:39:09.689Z,101025.94
2023-03-29T03:41:40.232Z,101016.25
2023-03-29T03:44:10.789Z,101019.53
2023-03-29T03:46:41.296Z,101018.25
2023-03-29T03:49:14.478Z,101029.50
2023-03-29T03:51:45.910Z,101030.69
2023-03-29T03:54:16.780Z,101034.66
2023-03-29T03:56:48.550Z,101035.03
2023-03-29T03:59:19.678Z,101037.84
2023-03-29T04:01:50.342Z,101044.66
2023-03-29T04:04:23.724Z,101045.47
2023-03-29T04:06:54.195Z,101043.81
2023-03-29T04:09:24.957Z,101050.63
2023-03-29T04:11:55.445Z,101053.44
2023-03-29T04:14:26.487Z,101064.22
2023-03-29T04:16:56.877Z,101069.00
2023-03-29T04:19:28.493Z,101066.91
2023-03-29T04:21:58.956Z,101078.50
2023-03-29T04:24:30.003Z,101079.22
2023-03-29T04:27:00.504Z,101079.97
2023-03-29T04:29:31.339Z,101074.22
2023-03-29T04:32:01.639Z,101072.59
2023-03-29T04:34:34.103Z,101076.22
2023-03-29T04:37:10.458Z,101081.84
2023-03-29T04:39:41.515Z,101090.75
2023-03-29T04:42:12.561Z,101085.59
2023-03-29T04:44:44.174Z,101090.47
2023-03-29T04:47:15.132Z,101092.56
2023-03-29T04:49:47.001Z,101099.47
2023-03-29T04:52:17.433Z,101089.53
2023-03-29T04:54:47.927Z,101100.06
2023-03-29T04:57:18.548Z,101108.59
2023-03-29T04:59:48.971Z,101103.91
2023-03-29T05:02:19.459Z,101104.00
2023-03-29T05:04:52.398Z,101110.56
2023-03-29T05:07:23.448Z,101114.66
2023-03-29T05:09:53.719Z,101123.19
2023-03-29T05:12:24.068Z,101117.22
2023-03-29T05:14:54.606Z,101123.75
2023-03-29T05:17:24.677Z,101122.69
2023-03-29T05:19:58.519Z,101124.41
2023-03-29T05:22:30.061Z,101120.88
2023-03-29T05:25:00.123Z,101126.25
2023-03-29T05:27:30.209Z,101132.00
2023-03-29T05:30:00.046Z,101125.28
2023-03-29T05:32:30.973Z,101134.63
2023-03-29T05:35:03.691Z,101136.72
2023-03-29T05:37:35.902Z,101137.63
2023-03-29T05:40:10.510Z,101143.84
2023-03-29T05:42:41.226Z,101150.03
2023-03-29T05:45:13.398Z,101148.50
2023-03-29T05:47:43.754Z,101154.22
2023-03-29T05:50:16.546Z,101159.97
2023-03-29T05:52:48.220Z,101163.66
2023-03-29T05:55:18.977Z,101168.66
2023-03-29T05:57:49.341Z,101167.25
2023-03-29T06:00:24.468Z,101171.88
2023-03-29T06:03:01.368Z,101170.31
2023-03-29T06:05:42.602Z,101174.06
2023-03-29T06:08:12.718Z,101174.94
2023-03-29T06:10:43.490Z,101177.84
2023-03-29T06:13:13.295Z,101181.59
2023-03-29T06:15:43.764Z,101185.38
2023-03-29T06:18:13.627Z,101188.25
2023-03-29T06:20:46.020Z,101178.72
2023-03-29T06:23:16.490Z,101194.53
2023-03-29T06:25:48.037Z,101191.00
2023-03-29T06:28:18.583Z,101195.88
2023-03-29T06:30:49.761Z,101205.25
2023-03-29T06:33:20.949Z,101200.06
2023-03-29T06:35:53.419Z,101199.78
2023-03-29T06:38:24.988Z,101206.69
2023-03-29T06:41:02.263Z,101206.41
2023-03-29T06:43:35.103Z,101210.94
2023-03-29T06:46:07.085Z,101205.84
2023-03-29T06:48:37.365Z,101209.22
2023-03-29T06:51:09.980Z,101211.38
2023-03-29T06:53:42.973Z,101203.81
2023-03-29T06:56:13.555Z,101214.38
2023-03-29T06:58:45.471Z,101213.66
2023-03-29T07:01:15.622Z,101217.75
2023-03-29T07:03:47.845Z,101216.91
2023-03-29T07:06:20.955Z,101226.19
2023-03-29T07:08:53.779Z,101223.47
2023-03-29T07:11:24.064Z,101227.53
2023-03-29T07:13:54.133Z,101215.91
2023-03-29T07:16:25.106Z,101218.81
2023-03-29T07:18:55.216Z,101221.25
2023-03-29T07:21:29.819Z,101226.16
2023-03-29T07:24:00.411Z,101227.88
2023-03-29T07:26:31.205Z,101221.09
2023-03-29T07:29:01.873Z,101227.63
2023-03-29T07:31:33.398Z,101222.50
2023-03-29T07:34:06.770Z,101232.34
2023-03-29T07:36:38.989Z,101232.88
2023-03-29T07:39:13.318Z,101228.47
2023-03-29T07:41:43.315Z,101235.41
2023-03-29T07:44:14.861Z,101233.50
2023-03-29T07:46:45.213Z,101235.13
2023-03-29T07:49:16.338Z,101227.47
2023-03-29T07:51:50.176Z,101244.84
2023-03-29T07:54:21.663Z,101244.84
2023-03-29T07:56:52.193Z,101247.31
2023-03-29T07:59:22.812Z,101264.78
2023-03-29T08:01:53.682Z,101263.66
2023-03-29T08:04:24.563Z,101250.44
2023-03-29T08:06:59.449Z,101249.75
2023-03-29T08:09:30.219Z,101260.75
2023-03-29T08:12:01.067Z,101251.97
2023-03-29T08:14:32.133Z,101250.09
2023-03-29T08:17:02.180Z,101250.25
2023-03-29T08:19:33.032Z,101248.75
2023-03-29T08:22:06.410Z,101248.41
2023-03-29T08:24:37.403Z,101243.56
2023-03-29T08:27:08.433Z,101252.47
2023-03-29T08:29:39.042Z,101251.28
2023-03-29T08:32:10.004Z,101248.06
2023-03-29T08:34:40.656Z,101261.81
2023-03-29T08:37:14.174Z,101252.16
2023-03-29T08:39:44.866Z,101244.88
2023-03-29T08:42:49.511Z,101255.38
2023-03-29T08:45:30.167Z,101254.19
2023-03-29T08:48:19.074Z,101253.06
2023-03-29T08:50:54.931Z,101251.53
2023-03-29T08:53:36.892Z,101262.91
2023-03-29T08:56:16.089Z,101255.69
2023-03-29T08:58:49.084Z,101263.00
2023-03-29T09:01:20.398Z,101247.63
2023-03-29T09:04:02.470Z,101264.25
2023-03-29T09:06:35.316Z,101246.81
2023-03-29T09:09:17.445Z,101258.88
2023-03-29T09:12:09.270Z,101258.03
2023-03-29T09:15:05.057Z,101255.94
2023-03-29T09:17:52.932Z,101258.72
2023-03-29T09:20:41.273Z,101253.41
2023-03-29T09:23:34.442Z,101255.44
2023-03-29T09:26:20.000Z,101257.88
2023-03-29T09:29:00.530Z,101246.22
2023-03-29T09:31:36.380Z,101250.72
2023-03-29T09:34:15.916Z,101244.69
2023-03-29T09:36:57.111Z,101239.88
2023-03-29T09:39:32.392Z,101238.72
2023-03-29T09:42:09.580Z,101239.53
2023-03-29T09:44:47.538Z,101246.44
2023-03-29T09:47:26.816Z,101238.84
2023-03-29T09:50:04.539Z,101238.91
2023-03-29T09:52:35.200Z,101236.97
2023-03-29T09:55:08.498Z,101233.34
2023-03-29T09:57:41.461Z,101217.22
2023-03-29T10:00:15.048Z,101226.16
2023-03-29T10:02:54.064Z,101232.59
2023-03-29T10:05:27.802Z,101221.28
2023-03-29T10:08:04.094Z,101227.38
2023-03-29T10:10:37.295Z,101232.16
2023-03-29T10:13:19.639Z,101223.22
2023-03-29T10:16:11.583Z,101227.69
2023-03-29T10:18:45.627Z,101222.88
2023-03-29T10:21:20.711Z,101220.03
2023-03-29T10:23:53.300Z,101220.03
2023-03-29T10:26:33.492Z,101213.94
2023-03-29T10:29:10.178Z,101217.56
2023-03-29T10:31:43.634Z,101226.91
2023-03-29T10:34:18.545Z,101207.53
2023-03-29T10:36:58.154Z,101221.72
2023-03-29T10:39:34.576Z,101206.44
2023-03-29T10:42:08.864Z,101204.06
2023-03-29T10:44:42.082Z,101207.69
2023-03-29T10:47:21.426Z,101201.63
2023-03-29T10:49:56.949Z,101208.09
2023-03-29T10:52:28.554Z,101211.66
2023-03-29T10:55:01.112Z,101204.75
2023-03-29T10:57:47.061Z,101201.50
2023-03-29T11:00:29.882Z,101201.44
2023-03-29T11:03:21.940Z,101207.47
2023-03-29T11:06:01.982Z,101196.47
2023-03-29T11:09:00.840Z,101206.47
2023-03-29T11:12:14.451Z,101212.44
2023-03-29T11:15:05.916Z,101209.56
2023-03-29T11:18:02.498Z,101206.22
2023-03-29T11:20:42.496Z,101211.78
2023-03-29T11:23:38.108Z,101208.03
2023-03-29T11:26:17.701Z,101220.13
2023-03-29T11:28:57.719Z,101214.34
2023-03-29T11:31:48.006Z,101207.38
2023-03-29T11:34:35.205Z,101210.16
2023-03-29T11:37:21.048Z,101203.59
2023-03-29T11:40:11.654Z,101209.13
2023-03-29T11:42:48.397Z,101216.38
2023-03-29T11:45:29.264Z,101213.09
2023-03-29T11:48:01.808Z,101209.38
2023-03-29T11:50:43.814Z,101210.94
2023-03-29T11:53:22.530Z,101214.16
2023-03-29T11:55:57.758Z,101214.88
2023-03-29T11:58:39.027Z,101212.44
2023-03-29T12:01:16.628Z,101214.00
2023-03-29T12:03:53.655Z,101214.38
2023-03-29T12:06:35.287Z,101209.47
2023-03-29T12:09:16.747Z,101205.38
2023-03-29T12:12:00.168Z,101214.59
2023-03-29T12:14:43.333Z,101200.41
2023-03-29T12:17:21.588Z,101206.44
2023-03-29T12:20:05.127Z,101207.63
2023-03-29T12:22:39.569Z,101206.44
2023-03-29T12:25:20.210Z,101193.13
2023-03-29T12:28:11.589Z,101198.41
2023-03-29T12:31:03.904Z,101204.78
2023-03-29T12:34:10.529Z,101195.88
2023-03-29T12:37:12.265Z,101203.06
2023-03-29T12:39:45.696Z,101205.44
2023-03-29T12:42:20.678Z,101196.16
2023-03-29T12:44:59.964Z,101207.00
2023-03-29T12:47:43.105Z,101196.09
2023-03-29T12:50:28.886Z,101207.66
2023-03-29T12:53:19.971Z,101209.63
2023-03-29T12:56:11.893Z,101206.34
2023-03-29T12:59:08.053Z,101209.16
2023-03-29T13:01:41.668Z,101214.81
2023-03-29T13:04:21.758Z,101205.06
2023-03-29T13:07:05.520Z,101211.06
2023-03-29T13:09:49.955Z,101206.53
2023-03-29T13:12:33.544Z,101212.56
2023-03-29T13:15:08.981Z,101215.41
2023-03-29T13:17:53.526Z,101205.28
2023-03-29T13:20:43.614Z,101207.66
2023-03-29T13:23:34.418Z,101214.50
2023-03-29T13:26:32.982Z,101217.69
2023-03-29T13:29:48.543Z,101222.88
2023-03-29T13:32:51.533Z,101224.44
2023-03-29T13:35:42.186Z,101226.00
2023-03-29T13:38:23.607Z,101229.56
2023-03-29T13:41:06.177Z,101235.56
2023-03-29T13:43:59.333Z,101235.13
2023-03-29T13:46:44.055Z,101230.59
2023-03-29T13:49:23.791Z,101235.25
2023-03-29T13:52:17.054Z,101244.69
2023-03-29T13:54:57.318Z,101243.78
2023-03-29T13:57:39.351Z,101245.34
2023-03-29T14:00:25.815Z,101242.91
2023-03-29T14:03:02.947Z,101249.25
2023-03-29T14:05:38.476Z,101248.44
2023-03-29T14:08:17.721Z,101257.63
2023-03-29T14:10:49.765Z,101253.91
2023-03-29T14:13:24.545Z,101252.63
2023-03-29T14:16:03.074Z,101251.72
2023-03-29T14:18:45.456Z,101265.72
2023-03-29T14:21:17.796Z,101260.72
2023-03-29T14:23:50.317Z,101268.38
2023-03-29T14:26:24.004Z,101270.28
2023-03-29T14:28:58.005Z,101268.63
2023-03-29T14:31:33.431Z,101264.19
2023-03-29T14:34:09.060Z,101269.38
2023-03-29T14:36:40.832Z,101271.75
2023-03-29T14:39:18.780Z,101273.28
2023-03-29T14:41:54.550Z,101265.94
2023-03-29T14:44:29.818Z,101260.50
2023-03-29T14:47:00.983Z,101262.06
2023-03-29T14:49:34.794Z,101265.97
2023-03-29T14:52:05.602Z,101260.25
2023-03-29T14:54:37.324Z,101267.31
2023-03-29T14:57:09.771Z,101272.84
2023-03-29T14:59:44.943Z,101261.84
2023-03-29T15:02:31.764Z,101252.09
2023-03-29T15:05:07.032Z,101271.25
2023-03-29T15:07:40.336Z,101263.91
2023-03-29T15:10:19.625Z,101261.81
2023-03-29T15:12:50.942Z,101272.63
2023-03-29T15:15:22.691Z,101281.44
2023-03-29T15:17:53.670Z,101270.50
2023-03-29T15:20:31.746Z,101275.34
2023-03-29T15:23:06.244Z,101275.69
2023-03-29T15:25:40.569Z,101275.25
2023-03-29T15:28:29.543Z,101278.06
2023-03-29T15:31:08.221Z,101277.59
2023-03-29T15:33:41.565Z,101278.78
2023-03-29T15:36:17.126Z,101288.41
2023-03-29T15:38:52.035Z,101290.75
2023-03-29T15:41:23.365Z,101289.09
2023-03-29T15:43:53.624Z,101274.56
2023-03-29T15:46:45.217Z,101299.91
2023-03-29T15:49:17.414Z,101289.38
2023-03-29T15:51:50.623Z,101294.16
2023-03-29T15:54:21.333Z,101298.63
2023-03-29T15:56:57.327Z,101299.47
2023-03-29T15:59:28.137Z,101305.91
2023-03-29T16:01:59.283Z,101305.44
2023-03-29T16:04:29.334Z,101308.94
2023-03-29T16:07:01.629Z,101303.22
2023-03-29T16:09:32.076Z,101308.38
2023-03-29T16:12:02.808Z,101303.44
2023-03-29T16:14:34.021Z,101306.97
2023-03-29T16:17:05.318Z,101308.13
2023-03-29T16:19:37.530Z,101302.88
2023-03-29T16:22:10.037Z,101295.59
2023-03-29T16:24:40.802Z,101306.41
2023-03-29T16:27:11.560Z,101306.75
2023-03-29T16:29:42.038Z,101306.28
2023-03-29T16:32:13.294Z,101313.09
2023-03-29T16:34:43.725Z,101321.78
2023-03-29T16:37:16.553Z,101327.78
2023-03-29T16:39:47.137Z,101313.25
2023-03-29T16:42:17.544Z,101320.84
2023-03-29T16:44:48.059Z,101311.94
2023-03-29T16:47:17.954Z,101334.81
2023-03-29T16:49:49.094Z,101338.00
2023-03-29T16:52:21.290Z,101331.09
2023-03-29T16:54:53.443Z,101332.13
2023-03-29T16:57:24.180Z,101340.13
2023-03-29T16:59:53.921Z,101340.44
2023-03-29T17:02:24.560Z,101342.47
2023-03-29T17:04:55.166Z,101345.97
2023-03-29T17:07:27.900Z,101353.59
2023-03-29T17:09:58.297Z,101343.53
2023-03-29T17:12:28.998Z,101359.56
2023-03-29T17:15:00.140Z,101351.97
2023-03-29T17:17:30.176Z,101346.66
2023-03-29T17:20:00.847Z,101349.47
2023-03-29T17:22:32.819Z,101353.81
2023-03-29T17:25:04.071Z,101350.91
2023-03-29T17:27:34.780Z,101355.91
2023-03-29T17:30:05.360Z,101368.69
2023-03-29T17:32:36.169Z,101370.91
2023-03-29T17:35:07.407Z,101377.94
2023-03-29T17:37:40.019Z,101376.19
2023-03-29T17:40:14.291Z,101379.56
2023-03-29T17:42:46.868Z,101384.72
2023-03-29T17:45:18.360Z,101385.41
2023-03-29T17:47:49.990Z,101384.94
2023-03-29T17:50:21.867Z,101398.97
2023-03-29T17:52:54.461Z,101384.94
2023-03-29T17:55:24.132Z,101386.94
2023-03-29T17:57:54.388Z,101398.19
2023-03-29T18:00:25.422Z,101394.19
2023-03-29T18:02:56.214Z,101407.09
2023-03-29T18:05:26.493Z,101397.38
2023-03-29T18:07:59.134Z,101405.81
2023-03-29T18:10:29.708Z,101412.22
2023-03-29T18:13:00.872Z,101409.06
2023-03-29T18:15:31.391Z,101413.53
2023-03-29T18:18:02.182Z,101413.53
2023-03-29T18:20:32.665Z,101413.19
2023-03-29T18:23:05.144Z,101413.03
2023-03-29T18:25:35.174Z,101419.84
2023-03-29T18:28:05.105Z,101411.75
2023-03-29T18:30:35.606Z,101416.91
2023-03-29T18:33:05.996Z,101417.63
2023-03-29T18:35:37.099Z,101421.47
2023-03-29T18:38:10.157Z,101415.38
2023-03-29T18:40:41.196Z,101410.06
2023-03-29T18:43:11.453Z,101418.50
2023-03-29T18:45:41.965Z,101411.25
2023-03-29T18:48:12.889Z,101414.06
2023-03-29T18:50:46.617Z,101409.25
2023-03-29T18:53:19.408Z,101403.16
2023-03-29T18:55:49.321Z,101403.88
2023-03-29T18:58:24.161Z,101406.22
2023-03-29T19:00:55.072Z,101409.34
2023-03-29T19:03:25.765Z,101413.31
2023-03-29T19:05:56.375Z,101416.84
2023-03-29T19:08:29.134Z,101412.75
2023-03-29T19:11:05.944Z,101408.28
2023-03-29T19:13:36.431Z,101405.78
2023-03-29T19:16:08.404Z,101409.75
2023-03-29T19:18:38.902Z,101409.28
2023-03-29T19:21:09.369Z,101415.59
2023-03-29T19:23:42.376Z,101418.41
2023-03-29T19:26:14.184Z,101411.94
2023-03-29T19:28:44.638Z,101418.41
2023-03-29T19:31:16.278Z,101422.50
2023-03-29T19:33:46.895Z,101420.53
2023-03-29T19:36:17.362Z,101425.78
2023-03-29T19:38:49.666Z,101420.19
2023-03-29T19:41:20.383Z,101412.56
2023-03-29T19:43:51.449Z,101411.41
2023-03-29T19:46:21.990Z,101402.66
2023-03-29T19:48:55.974Z,101401.50
2023-03-29T19:51:28.931Z,101393.75
2023-03-29T19:54:01.409Z,101399.69
2023-03-29T19:56:33.424Z,101405.63
2023-03-29T19:59:03.952Z,101398.72
2023-03-29T20:01:34.592Z,101391.47
2023-03-29T20:04:05.136Z,101394.16
2023-03-29T20:06:35.541Z,101391.22
2023-03-29T20:09:07.994Z,101392.69
2023-03-29T20:11:38.124Z,101389.44
2023-03-29T20:14:08.895Z,101403.81
2023-03-29T20:16:39.663Z,101403.00
2023-03-29T20:19:09.590Z,101404.84
2023-03-29T20:21:40.117Z,101401.09
2023-03-29T20:24:13.759Z,101406.09
2023-03-29T20:26:44.168Z,101388.41
2023-03-29T20:29:15.682Z,101398.84
2023-03-29T20:31:46.548Z,101398.00
2023-03-29T20:34:18.654Z,101394.03
2023-03-29T20:36:49.638Z,101393.22
2023-03-29T20:39:25.835Z,101400.00
2023-03-29T20:41:56.544Z,101394.75
2023-03-29T20:44:28.932Z,101383.50
2023-03-29T20:47:05.537Z,101389.56
2023-03-29T20:49:39.684Z,101383.97
2023-03-29T20:52:15.924Z,101380.00
2023-03-29T20:54:48.999Z,101386.78
2023-03-29T20:57:22.798Z,101386.44
2023-03-29T20:59:53.706Z,101390.91
2023-03-29T21:02:26.336Z,101381.31
2023-03-29T21:05:00.798Z,101383.28
2023-03-29T21:07:30.686Z,101385.75
2023-03-29T21:10:03.293Z,101380.59
2023-03-29T21:12:33.767Z,101386.22
2023-03-29T21:15:04.789Z,101375.81
2023-03-29T21:17:34.723Z,101383.41
2023-03-29T21:20:10.744Z,101380.13
2023-03-29T21:22:43.389Z,101380.84
2023-03-29T21:25:18.997Z,101389.94
2023-03-29T21:27:49.954Z,101388.28
2023-03-29T21:30:21.053Z,101383.50
2023-03-29T21:32:51.447Z,101378.22
2023-03-29T21:35:22.273Z,101375.75
2023-03-29T21:37:53.028Z,101381.38
2023-03-29T21:40:25.699Z,101384.53
2023-03-29T21:42:56.287Z,101374.34
2023-03-29T21:45:26.645Z,101377.34
2023-03-29T21:47:57.313Z,101375.22
2023-03-29T21:50:27.913Z,101376.84
2023-03-29T21:52:58.455Z,101374.53
2023-03-29T21:55:31.319Z,101373.72
2023-03-29T21:58:01.371Z,101382.16
2023-03-29T22:00:32.145Z,101379.34
2023-03-29T22:03:02.200Z,101377.34
2023-03-29T22:05:33.577Z,101368.13
2023-03-29T22:08:04.729Z,101379.34
2023-03-29T22:10:42.202Z,101379.66
2023-03-29T22:13:12.857Z,101368.78
2023-03-29T22:15:43.206Z,101370.44
2023-03-29T22:18:13.752Z,101366.34
2023-03-29T22:20:45.398Z,101357.06
2023-03-29T22:23:16.266Z,101364.22
2023-03-29T22:25:47.814Z,101365.00
2023-03-29T22:28:18.620Z,101367.00
2023-03-29T22:30:49.744Z,101363.38
2023-03-29T22:33:20.076Z,101363.38
2023-03-29T22:35:50.513Z,101358.94
2023-03-29T22:38:21.145Z,101362.19
2023-03-29T22:40:53.190Z,101362.19
2023-03-29T22:43:23.824Z,101355.78
2023-03-29T22:45:54.783Z,101345.34
2023-03-29T22:48:25.465Z,101341.75
2023-03-29T22:50:56.104Z,101336.47
2023-03-29T22:53:27.466Z,101339.63
2023-03-29T22:55:59.506Z,101334.00
2023-03-29T22:58:30.453Z,101334.34
2023-03-29T23:01:02.271Z,101336.00
2023-03-29T23:03:32.511Z,101331.56
2023-03-29T23:06:04.532Z,101341.63
2023-03-29T23:08:36.701Z,101339.28
2023-03-29T23:11:09.505Z,101337.28
2023-03-29T23:13:39.866Z,101329.22
2023-03-29T23:16:10.885Z,101338.47
2023-03-29T23:18:41.107Z,101339.28
2023-03-29T23:21:11.507Z,101333.31
2023-03-29T23:23:41.252Z,101334.13
2023-03-29T23:26:15.608Z,101332.03
2023-03-29T23:28:46.197Z,101331.06
2023-03-29T23:31:20.181Z,101325.31
2023-03-29T23:33:51.037Z,101329.59
2023-03-29T23:36:23.342Z,101319.06
2023-03-29T23:38:54.150Z,101323.84
2023-03-29T23:41:28.525Z,101309.81
2023-03-29T23:43:59.112Z,101311.44
2023-03-29T23:46:29.784Z,101312.28
2023-03-29T23:49:00.265Z,101313.44
2023-03-29T23:51:30.728Z,101308.50
2023-03-29T23:54:01.170Z,101306.41
2023-03-29T23:56:33.918Z,101311.53
2023-03-29T23:59:05.448Z,101306.25
